Time;durP1;ratioP1;P1;durP2;ratioP2;P2;SDS_P1;SDS_P2;PMS_P1;PMS_P2;Temp;Humidity;BMP_temperature;BMP_pressure;BME280_temperature;BME280_humidity;BME280_pressure;Samples;Min_cycle;Max_cycle;Signal;HPM_P1;HPM_P2
2023/09/28 00:00:46;;;;;;;2.85;0.75;;;;;;;17.61;97.69;101326.38;4967407;28;20103;-77
2023/09/28 00:03:14;;;;;;;0.68;0.50;;;;;;;17.56;99.12;101318.50;4957513;28;20464;-77
2023/09/28 00:05:43;;;;;;;2.97;0.73;;;;;;;17.68;99.48;101326.44;4959419;28;20153;-78
2023/09/28 00:08:11;;;;;;;0.85;0.57;;;;;;;17.74;97.78;101323.03;4960460;28;20063;-76
2023/09/28 00:10:39;;;;;;;2.08;0.57;;;;;;;17.84;98.34;101324.88;4963156;28;20055;-77
2023/09/28 00:13:09;;;;;;;3.15;0.93;;;;;;;17.93;96.65;101322.34;4954731;28;20570;-76
2023/09/28 00:15:38;;;;;;;1.27;0.50;;;;;;;17.99;91.42;101313.69;4964004;28;20046;-76
2023/09/28 00:18:06;;;;;;;1.33;0.47;;;;;;;18.07;91.29;101325.06;4969263;28;20138;-78
2023/09/28 00:20:37;;;;;;;2.30;0.32;;;;;;;18.10;90.29;101330.34;4972302;28;20042;-78
2023/09/28 00:23:04;;;;;;;2.00;0.50;;;;;;;18.15;90.33;101328.63;4963400;28;20047;-77
2023/09/28 00:25:35;;;;;;;2.47;0.60;;;;;;;18.21;91.03;101323.44;4967401;28;20054;-77
2023/09/28 00:28:02;;;;;;;2.75;0.50;;;;;;;18.27;89.36;101325.22;4963204;28;20058;-75
2023/09/28 00:30:31;;;;;;;2.72;0.50;;;;;;;18.32;87.44;101326.13;4959811;28;20420;-78
2023/09/28 00:32:58;;;;;;;1.80;0.60;;;;;;;18.25;86.16;101323.47;4954353;28;20055;-77
2023/09/28 00:35:27;;;;;;;2.47;0.38;;;;;;;18.20;86.53;101326.91;4962230;28;20215;-75
2023/09/28 00:37:56;;;;;;;1.88;0.35;;;;;;;18.20;87.16;101332.16;4970568;28;20086;-75
2023/09/28 00:40:31;;;;;;;1.92;0.50;;;;;;;18.26;88.11;101333.09;4957192;28;20061;-75
2023/09/28 00:42:59;;;;;;;4.15;0.65;;;;;;;18.24;88.02;101330.44;4958153;28;20570;-76
2023/09/28 00:45:29;;;;;;;3.92;0.75;;;;;;;18.19;83.88;101334.78;4968713;28;20055;-76
2023/09/28 00:47:59;;;;;;;7.60;0.95;;;;;;;18.19;85.79;101334.78;4971389;28;20150;-75
2023/09/28 00:50:33;;;;;;;1.88;0.40;;;;;;;18.15;86.29;101333.88;4970091;28;20045;-76
2023/09/28 00:53:04;;;;;;;0.95;0.40;;;;;;;18.17;88.58;101331.28;4965055;28;20110;-76
2023/09/28 00:55:34;;;;;;;2.15;0.70;;;;;;;18.15;88.93;101338.25;4971018;28;20050;-77
2023/09/28 00:58:02;;;;;;;1.13;0.32;;;;;;;18.12;87.97;101335.56;4970839;28;20051;-76
2023/09/28 01:00:32;;;;;;;1.98;0.35;;;;;;;18.00;87.32;101334.66;4966616;28;20746;-78
2023/09/28 01:03:00;;;;;;;4.38;0.70;;;;;;;18.04;87.76;101338.16;4967799;28;20055;-78
2023/09/28 01:05:33;;;;;;;0.30;0.30;;;;;;;18.00;88.02;101333.75;4965868;28;20063;-76
2023/09/28 01:08:09;;;;;;;;;;;;;;;17.98;89.46;101340.72;4967691;28;20140;-76
2023/09/28 01:10:40;;;;;;;3.33;0.63;;;;;;;17.90;89.80;101342.41;4964411;28;19962;-76
2023/09/28 01:13:11;;;;;;;10.23;0.60;;;;;;;17.84;90.79;101347.56;4969108;28;20065;-75
2023/09/28 01:15:40;;;;;;;4.65;0.50;;;;;;;17.78;91.47;101338.78;4963272;28;20058;-76
2023/09/28 01:18:10;;;;;;;3.45;0.70;;;;;;;17.74;93.78;101339.59;4971112;28;20139;-78
2023/09/28 01:20:38;;;;;;;3.35;0.60;;;;;;;17.67;95.65;101339.53;4972579;28;20054;-75
2023/09/28 01:23:09;;;;;;;3.20;0.60;;;;;;;17.61;97.11;101335.09;4971581;28;20390;-75
2023/09/28 01:25:37;;;;;;;3.17;0.32;;;;;;;17.56;97.94;101344.66;4973117;28;20051;-77
2023/09/28 01:28:07;;;;;;;3.85;0.82;;;;;;;17.50;98.78;101339.34;4968961;28;20047;-77
2023/09/28 01:30:34;;;;;;;0.40;0.30;;;;;;;17.43;99.92;101345.38;4962026;28;20062;-76
2023/09/28 01:33:03;;;;;;;7.97;0.60;;;;;;;17.39;100.00;101344.50;4966187;28;20062;-75
2023/09/28 01:35:31;;;;;;;3.17;0.68;;;;;;;17.33;100.00;101345.28;4962688;28;20047;-77
2023/09/28 01:38:06;;;;;;;2.08;0.65;;;;;;;17.28;100.00;101352.22;4963224;28;20098;-76
2023/09/28 01:40:38;;;;;;;1.50;0.38;;;;;;;17.25;100.00;101348.66;4963072;28;20047;-77
2023/09/28 01:43:08;;;;;;;3.70;0.60;;;;;;;17.19;100.00;101351.22;4961759;28;20119;-76
2023/09/28 01:45:35;;;;;;;3.83;0.75;;;;;;;17.11;100.00;101340.66;4965588;28;20508;-75
2023/09/28 01:48:04;;;;;;;1.80;0.43;;;;;;;17.07;100.00;101352.84;4970122;28;20057;-76
2023/09/28 01:50:36;;;;;;;1.60;0.55;;;;;;;17.01;100.00;101347.53;4968712;28;20150;-76
2023/09/28 01:53:05;;;;;;;;;;;;;;;16.98;97.81;101351.84;4964854;28;20059;-77
2023/09/28 01:55:32;;;;;;;2.58;0.77;;;;;;;16.91;96.96;101351.75;4964832;28;19933;-75
2023/09/28 01:58:07;;;;;;;2.90;0.40;;;;;;;16.89;96.82;101355.22;4964022;28;20063;-77
2023/09/28 02:00:35;;;;;;;2.15;0.70;;;;;;;16.85;95.87;101356.91;4963598;28;20174;-76
2023/09/28 02:03:05;;;;;;;2.63;0.70;;;;;;;16.80;95.57;101358.59;4967725;28;20058;-77
2023/09/28 02:05:32;;;;;;;5.85;0.60;;;;;;;16.76;95.79;101361.97;4970211;28;20047;-76
2023/09/28 02:08:02;;;;;;;0.82;0.40;;;;;;;16.75;96.37;101362.84;4965443;28;20065;-76
2023/09/28 02:10:29;;;;;;;2.50;0.60;;;;;;;16.71;97.08;101363.66;4967215;28;20047;-75
2023/09/28 02:12:58;;;;;;;0.85;0.38;;;;;;;16.65;97.95;101358.31;4968940;28;20058;-76
2023/09/28 02:15:27;;;;;;;0.75;0.40;;;;;;;16.60;99.95;101367.84;4961550;28;20058;-76
2023/09/28 02:17:55;;;;;;;2.47;0.43;;;;;;;16.53;99.82;101370.34;4965775;28;20059;-76
2023/09/28 02:20:23;;;;;;;3.53;0.65;;;;;;;16.49;100.00;101371.19;4971931;28;20046;-78
2023/09/28 02:22:55;;;;;;;4.30;0.52;;;;;;;16.48;100.00;101377.25;4967310;28;20059;-76
2023/09/28 02:25:24;;;;;;;;;;;;;;;16.45;100.00;101382.44;4963015;28;20099;-77
2023/09/28 02:27:54;;;;;;;5.32;0.88;;;;;;;16.42;100.00;101384.09;4960677;28;20026;-78
2023/09/28 02:30:23;;;;;;;3.45;0.82;;;;;;;16.40;100.00;101388.44;4967257;28;20057;-77
2023/09/28 02:32:55;;;;;;;7.63;1.42;;;;;;;16.38;100.00;101391.03;4963566;28;20059;-76
2023/09/28 02:35:25;;;;;;;1.73;0.50;;;;;;;16.33;100.00;101382.22;4968187;28;20051;-76
2023/09/28 02:37:56;;;;;;;4.25;0.80;;;;;;;16.30;99.06;101387.41;4965153;28;20055;-77
2023/09/28 02:40:24;;;;;;;2.72;0.47;;;;;;;16.25;99.47;101386.47;4964658;28;20138;-78
2023/09/28 02:42:52;;;;;;;1.00;0.40;;;;;;;16.22;99.33;101395.13;4960671;28;20061;-77
2023/09/28 02:45:20;;;;;;;4.38;0.52;;;;;;;16.17;98.66;101396.78;4962531;28;20063;-77
2023/09/28 02:47:54;;;;;;;1.63;0.25;;;;;;;16.12;98.72;101401.03;4964558;28;20110;-77
2023/09/28 02:50:36;;;;;;;3.95;0.50;;;;;;;16.06;98.41;101395.72;4962127;28;20054;-80
2023/09/28 02:53:07;;;;;;;4.05;0.50;;;;;;;16.04;99.32;101398.31;4967146;28;20134;-76
2023/09/28 02:55:40;;;;;;;6.47;0.98;;;;;;;16.03;100.00;101404.34;4970132;28;20070;-83
2023/09/28 02:58:09;;;;;;;2.95;0.43;;;;;;;16.03;100.00;101403.50;4964289;28;20055;-79
2023/09/28 03:00:37;;;;;;;1.33;0.50;;;;;;;16.04;100.00;101406.13;4966420;28;20125;-77
2023/09/28 03:03:09;;;;;;;5.13;0.80;;;;;;;16.02;99.55;101409.56;4969828;28;20070;-80
2023/09/28 03:05:38;;;;;;;3.83;0.65;;;;;;;15.99;99.22;101412.13;4967038;28;20525;-82
2023/09/28 03:08:11;;;;;;;4.28;0.65;;;;;;;15.97;99.49;101417.31;4968989;28;20057;-80
2023/09/28 03:10:40;;;;;;;8.80;0.77;;;;;;;15.94;99.38;101425.06;4965866;28;20410;-74
2023/09/28 03:13:10;;;;;;;3.95;0.60;;;;;;;15.91;99.21;101427.66;4948561;28;20505;-74
2023/09/28 03:15:43;;;;;;;3.65;0.68;;;;;;;15.85;99.64;101425.81;4950079;28;20039;-76
2023/09/28 03:18:12;;;;;;;2.88;0.88;;;;;;;15.75;100.00;101418.66;4950017;28;20088;-74
2023/09/28 03:20:43;;;;;;;2.60;0.60;;;;;;;15.77;100.00;101431.75;4949413;28;20059;-77
2023/09/28 03:23:12;;;;;;;0.82;0.50;;;;;;;15.74;100.00;101437.78;4949331;28;20070;-75
2023/09/28 03:25:43;;;;;;;1.30;0.55;;;;;;;15.72;100.00;101433.38;4949111;28;20055;-75
2023/09/28 03:28:11;;;;;;;2.35;0.50;;;;;;;15.72;100.00;101454.25;4949456;28;20165;-77
2023/09/28 03:30:39;;;;;;;0.50;0.22;;;;;;;15.68;100.00;101448.91;4953823;28;20075;-75
2023/09/28 03:33:08;;;;;;;1.52;0.75;;;;;;;15.71;100.00;101448.13;4953735;28;20051;-75
2023/09/28 03:35:38;;;;;;;4.38;0.65;;;;;;;15.68;100.00;101441.09;4947324;28;20051;-76
2023/09/28 03:38:08;;;;;;;1.70;0.70;;;;;;;15.70;100.00;101444.66;4948440;28;20150;-73
2023/09/28 03:40:37;;;;;;;5.00;0.73;;;;;;;15.69;100.00;101450.69;4948694;28;20054;-73
2023/09/28 03:43:06;;;;;;;2.33;0.70;;;;;;;15.68;100.00;101442.84;4953245;28;20061;-74
2023/09/28 03:45:34;;;;;;;1.10;0.45;;;;;;;15.64;100.00;101449.72;4934169;28;20057;-74
2023/09/28 03:48:03;;;;;;;4.25;0.63;;;;;;;15.58;100.00;101457.44;4948471;28;20626;-75
2023/09/28 03:50:32;;;;;;;2.22;0.35;;;;;;;15.56;100.00;101453.91;4950263;28;20106;-72
2023/09/28 03:53:00;;;;;;;4.68;0.47;;;;;;;15.54;100.00;101455.59;4952501;28;20202;-71
2023/09/28 03:55:31;;;;;;;4.10;0.52;;;;;;;15.55;100.00;101451.25;4953659;28;20537;-71
2023/09/28 03:58:01;;;;;;;2.35;0.47;;;;;;;15.54;100.00;101455.59;4953736;28;20047;-72
2023/09/28 04:00:31;;;;;;;2.70;0.75;;;;;;;15.49;100.00;101458.13;4946208;28;20584;-73
2023/09/28 04:02:59;;;;;;;1.73;1.25;;;;;;;15.44;100.00;101456.28;4952364;28;20051;-72
2023/09/28 04:05:28;;;;;;;3.28;0.50;;;;;;;15.43;100.00;101467.53;4952322;28;20043;-72
2023/09/28 04:07:56;;;;;;;2.28;0.60;;;;;;;15.41;100.00;101470.09;4952073;28;21143;-72
2023/09/28 04:10:25;;;;;;;8.50;0.50;;;;;;;15.40;100.00;101470.09;4952733;28;20051;-73
2023/09/28 04:12:58;;;;;;;4.53;0.88;;;;;;;15.38;100.00;101475.25;4970881;28;20058;-73
2023/09/28 04:15:26;;;;;;;2.95;0.47;;;;;;;15.34;100.00;101483.00;4972543;28;20047;-73
2023/09/28 04:17:55;;;;;;;4.82;0.90;;;;;;;15.31;100.00;101482.94;4964526;28;20042;-72
2023/09/28 04:20:23;;;;;;;3.30;0.57;;;;;;;15.29;100.00;101482.91;4967862;28;20047;-74
2023/09/28 04:22:52;;;;;;;6.43;0.35;;;;;;;15.29;100.00;101486.38;4971023;28;20212;-72
2023/09/28 04:25:26;;;;;;;3.40;0.50;;;;;;;15.27;100.00;101482.84;4969969;28;20058;-72
2023/09/28 04:27:56;;;;;;;1.20;0.40;;;;;;;15.24;100.00;101481.91;4969451;28;20047;-74
2023/09/28 04:30:25;;;;;;;3.13;0.60;;;;;;;15.18;100.00;101485.25;4965922;28;20046;-73
2023/09/28 04:32:57;;;;;;;2.05;0.57;;;;;;;15.13;100.00;101483.41;4966117;28;20548;-72
2023/09/28 04:35:26;;;;;;;4.33;0.70;;;;;;;15.08;100.00;101489.38;4968718;28;20062;-71
2023/09/28 04:37:55;;;;;;;3.60;0.60;;;;;;;15.07;100.00;101484.13;4968444;28;20054;-71
2023/09/28 04:40:25;;;;;;;2.88;0.50;;;;;;;15.08;100.00;101480.69;4969485;28;20046;-72
2023/09/28 04:42:56;;;;;;;3.47;0.65;;;;;;;15.08;100.00;101485.91;4960475;28;20047;-69
2023/09/28 04:45:25;;;;;;;6.40;1.13;;;;;;;15.07;100.00;101485.03;4965911;28;20051;-70
2023/09/28 04:47:53;;;;;;;4.63;0.50;;;;;;;15.08;100.00;101481.56;4967840;28;20059;-72
2023/09/28 04:50:22;;;;;;;6.10;0.65;;;;;;;15.07;100.00;101478.91;4967916;28;20041;-71
2023/09/28 04:52:51;;;;;;;3.45;0.65;;;;;;;15.09;100.00;101485.06;4969956;28;20043;-73
2023/09/28 04:55:23;;;;;;;2.30;0.43;;;;;;;15.12;100.00;101485.13;4977313;28;20090;-72
2023/09/28 04:57:53;;;;;;;2.50;1.02;;;;;;;15.15;100.00;101487.81;4968035;28;20047;-70
2023/09/28 05:00:23;;;;;;;2.50;1.45;;;;;;;15.16;100.00;101479.13;4965992;28;20133;-71
2023/09/28 05:02:51;;;;;;;1.85;0.32;;;;;;;15.15;100.00;101474.78;4969004;28;20493;-71
2023/09/28 05:05:20;;;;;;;0.82;0.40;;;;;;;15.13;100.00;101471.25;4967787;28;20529;-72
2023/09/28 05:07:49;;;;;;;4.07;0.50;;;;;;;15.12;100.00;101477.31;4970518;28;20085;-70
2023/09/28 05:10:17;;;;;;;2.30;0.40;;;;;;;15.10;100.00;101479.00;4966758;28;20051;-70
2023/09/28 05:12:46;;;;;;;2.53;0.38;;;;;;;15.08;100.00;101470.28;4967913;28;20464;-72
2023/09/28 05:15:15;;;;;;;2.47;0.70;;;;;;;15.07;100.00;101478.91;4967835;28;20059;-71
2023/09/28 05:17:45;;;;;;;5.32;0.77;;;;;;;15.05;100.00;101480.63;4970496;28;20053;-71
2023/09/28 05:20:14;;;;;;;1.65;0.60;;;;;;;15.04;100.00;101476.25;4967502;28;20050;-70
2023/09/28 05:22:43;;;;;;;1.60;0.55;;;;;;;15.06;100.00;101475.44;4971723;28;20137;-71
2023/09/28 05:25:11;;;;;;;2.38;0.32;;;;;;;15.06;100.00;101477.16;4968380;28;20252;-72
2023/09/28 05:27:40;;;;;;;2.22;0.43;;;;;;;15.05;100.00;101468.47;4967494;28;20050;-72
2023/09/28 05:30:15;;;;;;;9.32;0.60;;;;;;;15.04;100.00;101464.09;4967234;28;20046;-72
2023/09/28 05:32:45;;;;;;;3.97;0.50;;;;;;;15.02;100.00;101460.56;4968996;28;20766;-72
2023/09/28 05:35:14;;;;;;;1.33;0.57;;;;;;;15.01;100.00;101463.16;4970018;28;20504;-72
2023/09/28 05:37:42;;;;;;;1.27;0.65;;;;;;;15.00;100.00;101477.03;4966477;28;20548;-72
2023/09/28 05:40:12;;;;;;;1.45;0.20;;;;;;;14.98;100.00;101471.78;4967151;28;20049;-71
2023/09/28 05:42:41;;;;;;;1.77;0.40;;;;;;;14.96;100.00;101467.41;4971177;28;20074;-72
2023/09/28 05:45:11;;;;;;;1.88;0.60;;;;;;;14.93;100.00;101464.69;4964572;28;20059;-72
2023/09/28 05:47:39;;;;;;;1.35;0.45;;;;;;;14.91;100.00;101471.59;4967387;28;20105;-71
2023/09/28 05:50:11;;;;;;;2.95;0.50;;;;;;;14.87;100.00;101474.16;4967195;28;20051;-72
2023/09/28 05:52:39;;;;;;;1.92;0.43;;;;;;;14.77;100.00;101463.47;4962108;28;20043;-72
2023/09/28 05:55:09;;;;;;;2.45;0.50;;;;;;;14.78;100.00;101473.94;4966219;28;20113;-71
2023/09/28 05:57:37;;;;;;;2.45;0.47;;;;;;;14.77;100.00;101468.66;4969387;28;20105;-71
2023/09/28 06:00:09;;;;;;;0.68;0.40;;;;;;;14.73;100.00;101470.34;4970781;28;20059;-71
2023/09/28 06:02:40;;;;;;;1.90;0.55;;;;;;;14.70;100.00;101471.97;4969097;28;20047;-72
2023/09/28 06:05:11;;;;;;;2.83;0.57;;;;;;;14.64;100.00;101477.94;4965523;28;20137;-72
2023/09/28 06:07:39;;;;;;;0.77;0.40;;;;;;;14.62;100.00;101474.41;4968233;28;20117;-72
2023/09/28 06:10:09;;;;;;;0.80;0.40;;;;;;;14.59;100.00;101475.22;4970015;28;20079;-71
2023/09/28 06:12:38;;;;;;;0.70;0.50;;;;;;;14.54;100.00;101473.28;4970248;28;20049;-72
2023/09/28 06:15:09;;;;;;;0.60;0.60;;;;;;;14.49;100.00;101474.91;4969368;28;20167;-71
2023/09/28 06:17:38;;;;;;;0.95;0.30;;;;;;;14.45;100.00;101468.72;4960535;28;20058;-72
2023/09/28 06:20:07;;;;;;;4.40;0.60;;;;;;;14.42;100.00;101472.13;4963913;28;20334;-72
2023/09/28 06:22:38;;;;;;;5.63;0.70;;;;;;;14.34;100.00;101478.00;4967369;28;20053;-71
2023/09/28 06:25:08;;;;;;;10.68;0.85;;;;;;;14.28;100.00;101478.72;4963234;28;20059;-72
2023/09/28 06:27:37;;;;;;;2.95;0.50;;;;;;;14.24;100.00;101469.94;4968249;28;20085;-72
2023/09/28 06:30:06;;;;;;;5.70;0.80;;;;;;;14.22;100.00;101473.34;4967328;28;20078;-72
2023/09/28 06:32:35;;;;;;;2.38;0.52;;;;;;;14.19;100.00;101468.06;4966011;28;20058;-72
2023/09/28 06:35:04;;;;;;;5.35;0.90;;;;;;;14.18;100.00;101471.53;4966580;28;20073;-72
2023/09/28 06:37:32;;;;;;;2.35;0.93;;;;;;;14.16;100.00;101462.81;4960143;28;20057;-73
2023/09/28 06:40:03;;;;;;;0.40;0.30;;;;;;;14.15;100.00;101467.09;4966506;28;20054;-72
2023/09/28 06:42:31;;;;;;;4.78;0.45;;;;;;;14.12;100.00;101460.97;4966371;28;20050;-72
2023/09/28 06:45:00;;;;;;;0.22;0.20;;;;;;;14.11;100.00;101459.19;4967169;28;20473;-71
2023/09/28 06:47:29;;;;;;;0.77;0.47;;;;;;;14.08;100.00;101459.09;4965350;28;20057;-72
2023/09/28 06:49:57;;;;;;;0.70;0.50;;;;;;;14.07;100.00;101457.34;4965524;28;20070;-72
2023/09/28 06:52:28;;;;;;;4.43;0.73;;;;;;;14.02;100.00;101457.25;4963850;28;20102;-72
2023/09/28 06:54:57;;;;;;;2.53;0.55;;;;;;;13.95;100.00;101456.19;4960641;28;20051;-72
2023/09/28 06:57:27;;;;;;;3.15;1.38;;;;;;;13.91;100.00;101456.06;4964459;28;20055;-72
2023/09/28 06:59:58;;;;;;;0.68;0.68;;;;;;;13.90;100.00;101460.38;4959893;28;20603;-71
2023/09/28 07:02:27;;;;;;;1.60;0.70;;;;;;;13.82;100.00;101447.16;4964989;28;20063;-71
2023/09/28 07:04:56;;;;;;;1.00;0.50;;;;;;;13.88;100.00;101451.66;4967452;28;20055;-71
2023/09/28 07:07:29;;;;;;;4.57;0.90;;;;;;;13.89;100.00;101450.81;4961096;28;20046;-70
2023/09/28 07:10:00;;;;;;;3.13;0.57;;;;;;;13.85;100.00;101451.56;4967620;28;20057;-71
2023/09/28 07:12:30;;;;;;;7.20;1.17;;;;;;;13.83;100.00;101445.44;4969072;28;20070;-72
2023/09/28 07:14:59;;;;;;;1.10;0.70;;;;;;;13.81;100.00;101454.91;4965330;28;20813;-71
2023/09/28 07:17:28;;;;;;;0.52;0.52;;;;;;;13.74;100.00;101450.38;4967381;28;20054;-71
2023/09/28 07:19:56;;;;;;;1.67;1.25;;;;;;;13.72;100.00;101454.66;4971187;28;20050;-71
2023/09/28 07:22:28;;;;;;;2.15;0.50;;;;;;;13.69;100.00;101449.38;4965246;28;20051;-72
2023/09/28 07:24:58;;;;;;;1.70;0.57;;;;;;;13.65;100.00;101451.00;4962857;28;20116;-72
2023/09/28 07:27:31;;;;;;;10.15;1.15;;;;;;;13.64;100.00;101456.19;4967638;28;20051;-72
2023/09/28 07:30:05;;;;;;;0.93;0.82;;;;;;;13.61;100.00;101455.25;4956981;28;20126;-72
2023/09/28 07:32:34;;;;;;;3.88;0.75;;;;;;;13.61;100.00;101452.66;4973632;28;20050;-72
2023/09/28 07:35:03;;;;;;;2.20;1.02;;;;;;;13.61;100.00;101454.38;4966778;28;20055;-71
2023/09/28 07:37:32;;;;;;;1.70;0.70;;;;;;;13.58;100.00;101447.38;4968753;28;20095;-72
2023/09/28 07:40:01;;;;;;;2.10;0.70;;;;;;;13.57;100.00;101450.78;4968562;28;20104;-71
2023/09/28 07:42:31;;;;;;;2.67;0.95;;;;;;;13.53;100.00;101443.75;4969607;28;20304;-71
2023/09/28 07:45:01;;;;;;;4.00;0.50;;;;;;;13.50;100.00;101437.59;4967996;28;20070;-72
2023/09/28 07:47:30;;;;;;;6.25;0.90;;;;;;;13.50;100.00;101446.25;4968401;28;20563;-72
2023/09/28 07:49:59;;;;;;;0.95;0.60;;;;;;;13.49;100.00;101435.81;4968301;28;20054;-71
2023/09/28 07:52:28;;;;;;;1.45;0.70;;;;;;;13.49;100.00;101436.72;4967960;28;20042;-71
2023/09/28 07:54:58;;;;;;;3.85;0.90;;;;;;;13.50;100.00;101429.78;4969352;28;20518;-72
2023/09/28 07:57:26;;;;;;;3.92;0.93;;;;;;;13.52;100.00;101433.31;4967824;28;20059;-71
2023/09/28 07:59:55;;;;;;;2.13;0.70;;;;;;;13.53;100.00;101427.28;4965778;28;20108;-72
2023/09/28 08:02:26;;;;;;;2.22;0.93;;;;;;;13.53;100.00;101433.34;4970165;28;20134;-72
2023/09/28 08:04:55;;;;;;;1.08;0.77;;;;;;;13.51;100.00;101429.81;4965483;28;20054;-71
2023/09/28 08:07:24;;;;;;;1.88;0.60;;;;;;;13.52;100.00;101429.00;4967601;28;20074;-72
2023/09/28 08:09:53;;;;;;;5.88;0.95;;;;;;;13.51;100.00;101437.63;4969602;28;20133;-72
2023/09/28 08:12:22;;;;;;;6.72;0.82;;;;;;;13.51;100.00;101427.22;4969041;28;20797;-71
2023/09/28 08:14:50;;;;;;;6.75;1.05;;;;;;;13.50;100.00;101435.88;4968783;28;20053;-72
2023/09/28 08:17:20;;;;;;;2.95;0.98;;;;;;;13.49;100.00;101434.13;4965552;28;20131;-72
2023/09/28 08:19:51;;;;;;;1.90;0.65;;;;;;;13.46;100.00;101436.59;4967913;28;20437;-72
2023/09/28 08:22:20;;;;;;;4.80;1.00;;;;;;;13.46;100.00;101425.34;4969554;28;20054;-71
2023/09/28 08:24:49;;;;;;;2.83;0.98;;;;;;;13.45;100.00;101432.25;4966918;28;20515;-72
2023/09/28 08:27:20;;;;;;;2.65;0.43;;;;;;;13.44;100.00;101427.88;4973514;28;20047;-72
2023/09/28 08:29:49;;;;;;;3.38;0.68;;;;;;;13.43;100.00;101428.72;4968520;28;20050;-70
2023/09/28 08:32:17;;;;;;;3.20;0.80;;;;;;;13.45;100.00;101440.06;4969799;28;20050;-71
2023/09/28 08:34:46;;;;;;;2.17;0.60;;;;;;;13.43;100.00;101431.34;4963810;28;20122;-71
2023/09/28 08:37:16;;;;;;;7.05;0.95;;;;;;;13.42;100.00;101429.56;4966321;28;20489;-72
2023/09/28 08:39:45;;;;;;;4.43;0.65;;;;;;;13.43;100.00;101435.66;4962618;28;20058;-73
2023/09/28 08:42:15;;;;;;;4.32;0.75;;;;;;;13.43;100.00;101436.53;4969415;28;20070;-72
2023/09/28 08:44:45;;;;;;;2.67;0.75;;;;;;;13.44;100.00;101427.00;4965453;28;20055;-72
2023/09/28 08:47:18;;;;;;;1.98;0.75;;;;;;;13.42;100.00;101424.34;4964801;28;20105;-71
2023/09/28 08:49:52;;;;;;;1.38;0.70;;;;;;;13.44;100.00;101422.69;4963592;28;20169;-72
2023/09/28 08:52:23;;;;;;;2.97;0.75;;;;;;;13.39;100.00;101424.28;4968522;28;20484;-71
2023/09/28 08:54:52;;;;;;;8.73;1.70;;;;;;;13.36;100.00;101419.88;4964492;28;20054;-72
2023/09/28 08:57:22;;;;;;;4.38;0.90;;;;;;;13.31;100.00;101420.56;4969285;28;20489;-72
2023/09/28 08:59:53;;;;;;;4.50;0.93;;;;;;;13.28;100.00;101415.28;4966143;28;20117;-71
2023/09/28 09:02:22;;;;;;;7.55;0.70;;;;;;;13.25;100.00;101415.19;4967666;28;20157;-72
2023/09/28 09:04:50;;;;;;;9.27;0.95;;;;;;;13.26;100.00;101415.19;4967123;28;20059;-72
2023/09/28 09:07:22;;;;;;;1.83;1.05;;;;;;;13.29;100.00;101411.88;4967138;28;20051;-72
2023/09/28 09:09:58;;;;;;;1.70;0.88;;;;;;;13.29;100.00;101411.88;4963093;28;20050;-71
2023/09/28 09:12:32;;;;;;;5.30;1.25;;;;;;;13.28;100.00;101405.75;4966087;28;20093;-72
2023/09/28 09:15:00;;;;;;;3.33;0.63;;;;;;;13.30;100.00;101416.22;4969039;28;20065;-71
2023/09/28 09:17:34;;;;;;;1.40;0.70;;;;;;;13.33;100.00;101409.41;4964116;28;20051;-72
2023/09/28 09:20:05;;;;;;;4.78;0.47;;;;;;;13.37;100.00;101410.34;4971716;28;20568;-71
2023/09/28 09:22:34;;;;;;;1.13;0.80;;;;;;;13.37;100.00;101405.16;4967383;28;20046;-72
2023/09/28 09:25:07;;;;;;;3.42;0.80;;;;;;;13.40;100.00;101403.53;4967416;28;20516;-71
2023/09/28 09:27:34;;;;;;;;;;;;;;;13.43;100.00;101400.13;4968518;28;20145;-71
2023/09/28 09:30:08;;;;;;;5.35;1.20;;;;;;;13.42;100.00;101398.34;4967885;28;19922;-72
2023/09/28 09:32:39;;;;;;;6.95;1.05;;;;;;;13.41;100.00;101396.63;4964550;28;20520;-71
2023/09/28 09:35:08;;;;;;;1.30;0.60;;;;;;;13.39;100.00;101393.97;4969805;28;20113;-71
2023/09/28 09:37:41;;;;;;;3.78;0.60;;;;;;;13.37;100.00;101389.56;4965843;28;20065;-72
2023/09/28 09:40:16;;;;;;;1.50;0.60;;;;;;;13.38;100.00;101387.00;4963474;28;20043;-72
2023/09/28 09:42:44;;;;;;;2.03;0.80;;;;;;;13.39;100.00;101393.09;4968012;28;20050;-71
2023/09/28 09:45:13;;;;;;;5.00;1.02;;;;;;;13.40;100.00;101394.88;4966240;28;20062;-72
2023/09/28 09:47:47;;;;;;;1.05;0.65;;;;;;;13.41;100.00;101386.22;4969269;28;20050;-72
2023/09/28 09:50:17;;;;;;;1.00;0.70;;;;;;;13.41;100.00;101386.22;4967658;28;20111;-71
2023/09/28 09:52:46;;;;;;;1.08;0.65;;;;;;;13.42;100.00;101382.75;4969235;28;20053;-71
2023/09/28 09:55:16;;;;;;;2.88;1.42;;;;;;;13.43;100.00;101387.13;4970412;28;20058;-72
2023/09/28 09:57:48;;;;;;;2.67;0.50;;;;;;;13.41;100.00;101386.22;4968715;28;20047;-71
2023/09/28 10:00:22;;;;;;;4.68;0.77;;;;;;;13.39;100.00;101383.56;4963183;28;20055;-72
2023/09/28 10:02:58;;;;;;;2.03;0.55;;;;;;;13.31;100.00;101379.88;4966466;28;20074;-71
2023/09/28 10:05:28;;;;;;;0.40;0.40;;;;;;;13.40;100.00;101392.28;4966557;28;20138;-72
2023/09/28 10:07:58;;;;;;;1.58;0.68;;;;;;;13.43;100.00;101386.28;4966355;28;20125;-71
2023/09/28 10:10:31;;;;;;;3.58;0.77;;;;;;;13.45;100.00;101388.06;4964810;28;20046;-72
2023/09/28 10:13:01;;;;;;;;;;;;;;;13.44;100.00;101381.09;4969528;28;20051;-72
2023/09/28 10:15:30;;;;;;;1.20;0.75;;;;;;;13.42;100.00;101377.56;4966618;28;19933;-71
2023/09/28 10:18:01;;;;;;;4.22;0.40;;;;;;;13.34;100.00;101372.16;4960935;28;20146;-72
2023/09/28 10:20:30;;;;;;;7.50;0.93;;;;;;;13.36;100.00;101370.50;4965733;28;20070;-71
2023/09/28 10:23:01;;;;;;;3.00;1.00;;;;;;;13.40;100.00;101381.88;4966914;28;20512;-72
2023/09/28 10:25:53;;;;;;;6.07;0.77;;;;;;;13.42;100.00;101380.16;4961017;28;20058;-72
2023/09/28 10:28:24;;;;;;;1.67;0.52;;;;;;;13.42;100.00;101382.75;4965839;28;20074;-72
2023/09/28 10:31:11;;;;;;;2.33;0.65;;;;;;;13.41;100.00;101394.00;4966391;28;20133;-72
2023/09/28 10:34:00;;;;;;;2.53;0.70;;;;;;;13.41;100.00;101386.22;4964923;28;20054;-72
2023/09/28 10:36:29;;;;;;;5.38;1.08;;;;;;;13.44;100.00;101381.09;4964436;28;20047;-71
2023/09/28 10:39:14;;;;;;;3.08;1.17;;;;;;;13.45;100.00;101390.66;4970805;28;20567;-71
2023/09/28 10:41:47;;;;;;;3.15;0.85;;;;;;;13.46;100.00;101386.34;4965512;28;20058;-71
2023/09/28 10:44:20;;;;;;;2.65;0.52;;;;;;;13.40;100.00;101374.94;4972728;28;20043;-71
2023/09/28 10:46:48;;;;;;;;;;;;;;;13.47;100.00;101385.50;4969207;28;20099;-72
2023/09/28 10:49:24;;;;;;;6.00;1.05;;;;;;;13.49;100.00;101381.22;4964838;28;20376;-72
2023/09/28 10:51:53;;;;;;;0.77;0.38;;;;;;;13.51;100.00;101383.00;4964034;28;20042;-71
2023/09/28 10:54:24;;;;;;;3.40;0.70;;;;;;;13.52;100.00;101379.59;4963265;28;20050;-71
2023/09/28 10:56:54;;;;;;;4.90;1.15;;;;;;;13.52;100.00;101374.41;4955855;28;20062;-71
2023/09/28 10:59:24;;;;;;;4.65;1.00;;;;;;;13.49;100.00;101374.31;4966229;28;20047;-72
2023/09/28 11:01:53;;;;;;;1.52;0.70;;;;;;;13.44;100.00;101368.09;4966361;28;20051;-72
2023/09/28 11:04:24;;;;;;;4.15;1.05;;;;;;;13.47;100.00;101370.78;4961309;28;20062;-72
2023/09/28 11:06:53;;;;;;;1.23;0.57;;;;;;;13.47;100.00;101375.09;4966473;28;20501;-72
2023/09/28 11:09:21;;;;;;;3.60;0.80;;;;;;;13.47;100.00;101376.00;4964814;28;20055;-72
2023/09/28 11:11:50;;;;;;;2.70;0.52;;;;;;;13.51;100.00;101383.00;4965539;28;20733;-72
2023/09/28 11:14:25;;;;;;;1.40;1.00;;;;;;;13.53;100.00;101381.34;4963389;28;20061;-73
2023/09/28 11:16:54;;;;;;;2.35;0.80;;;;;;;13.50;100.00;101375.19;4967543;28;20051;-73
2023/09/28 11:19:23;;;;;;;2.70;1.00;;;;;;;13.53;100.00;101378.75;4966852;28;20218;-73
2023/09/28 11:21:52;;;;;;;3.10;1.10;;;;;;;13.54;100.00;101382.25;4964418;28;20066;-72
2023/09/28 11:24:25;;;;;;;1.10;0.50;;;;;;;13.55;100.00;101384.88;4966038;28;20106;-74
2023/09/28 11:26:56;;;;;;;8.57;0.80;;;;;;;13.53;100.00;101376.13;4963775;28;20062;-73
2023/09/28 11:29:27;;;;;;;3.58;0.95;;;;;;;13.52;100.00;101377.00;4968447;28;20050;-74
2023/09/28 11:31:55;;;;;;;7.63;0.73;;;;;;;13.51;100.00;101376.94;4963772;28;20070;-74